Adrian, Texas
Current Conditions -  °F | °C
As of 11:15 PM on Saturday 25 Oct 2014 (Local Time) from KHRX Reporting Station
Clear Clear  
Wind Chill: 15°   Ceiling: Unl
Heat Index: 15°   Visibility: 10mi
Dew Point: 10°   Wind: 8mph
Humidity: 73%   Direction: 150°SSE
Pressure: 30.09"   Gusts: NA
Location:  35.27°N, 102.67°W
Report Text: KHRX 260415Z AUTO 15007KT 10SM CLR 15/10 A3009 RMK AO2 T01500101
Loading
Personal Weather Stations






























Interactive Weather Map
Tropical Storm Tracking
New forecast layout! Learn more

10-Day Weather Forecast

Advertisements
Track Severe Weather on mobile